createdAt,value
2017-11-22T00:01:39.577Z,100656.34
2017-11-22T00:03:43.658Z,100650.30
2017-11-22T00:05:52.136Z,100654.63
2017-11-22T00:08:00.099Z,100647.75
2017-11-22T00:10:08.427Z,100645.17
2017-11-22T00:12:15.134Z,100647.33
2017-11-22T00:22:43.150Z,100640.85
2017-11-22T00:27:10.793Z,100643.38
2017-11-22T00:29:20.159Z,100646.02
2017-11-22T00:31:23.668Z,100645.95
2017-11-22T00:33:33.277Z,100650.30
2017-11-22T00:35:39.777Z,100641.21
2017-11-22T00:38:01.092Z,100644.66
2017-11-22T00:40:09.064Z,100641.75
2017-11-22T00:42:14.074Z,100643.88
2017-11-22T00:44:18.193Z,100641.75
2017-11-22T00:46:20.240Z,100637.01
2017-11-22T00:48:30.316Z,100640.02
2017-11-22T00:54:45.348Z,100637.34
2017-11-22T01:35:29.217Z,100637.67
2017-11-22T01:42:04.032Z,100627.83
2017-11-22T01:44:17.297Z,100625.60
2017-11-22T01:46:20.695Z,100614.83
2017-11-22T01:50:38.924Z,100598.92
2017-11-22T01:52:41.888Z,100601.50
2017-11-22T01:54:44.775Z,100607.53
2017-11-22T01:56:46.247Z,100603.14
2017-11-22T01:58:48.130Z,100604.92
2017-11-22T02:01:08.061Z,100601.50
2017-11-22T02:03:15.915Z,100596.75
2017-11-22T02:05:17.642Z,100590.24
2017-11-22T02:07:19.252Z,100595.38
2017-11-22T02:09:21.232Z,100594.53
2017-11-22T02:11:23.241Z,100586.37
2017-11-22T02:13:25.105Z,100593.21
2017-11-22T02:15:27.061Z,100580.78
2017-11-22T02:17:28.990Z,100587.23
2017-11-22T02:19:30.561Z,100582.05
2017-11-22T02:21:32.215Z,100577.75
2017-11-22T02:23:34.037Z,100584.62
2017-11-22T02:25:35.932Z,100575.59
2017-11-22T02:27:37.417Z,100569.56
2017-11-22T02:29:39.065Z,100560.95
2017-11-22T02:31:41.005Z,100552.48
2017-11-22T02:33:42.799Z,100555.87
2017-11-22T02:35:44.293Z,100548.52
2017-11-22T02:37:46.236Z,100551.10
2017-11-22T02:39:48.106Z,100550.23
2017-11-22T02:41:50.009Z,100544.65
2017-11-22T02:43:51.660Z,100554.10
2017-11-22T02:45:53.207Z,100555.78
2017-11-22T02:47:55.213Z,100557.53
2017-11-22T02:49:57.143Z,100562.23
2017-11-22T02:51:59.217Z,100560.52
2017-11-22T02:54:01.184Z,100559.23
2017-11-22T02:56:03.204Z,100552.78
2017-11-22T02:58:05.295Z,100559.23
2017-11-22T03:00:07.203Z,100560.52
2017-11-22T03:02:09.261Z,100557.49
2017-11-22T03:04:11.081Z,100559.23
2017-11-22T03:06:13.248Z,100561.39
2017-11-22T03:08:15.141Z,100559.23
2017-11-22T03:10:17.085Z,100556.66
2017-11-22T03:12:19.153Z,100550.66
2017-11-22T03:14:21.176Z,100547.20
2017-11-22T03:16:23.199Z,100534.74
2017-11-22T03:18:25.218Z,100530.42
2017-11-22T03:20:27.164Z,100527.84
2017-11-22T03:22:29.070Z,100529.16
2017-11-22T03:24:31.064Z,100534.71
2017-11-22T03:26:34.073Z,100523.09
2017-11-22T03:28:36.087Z,100529.55
2017-11-22T03:30:38.002Z,100517.00
2017-11-22T03:32:39.915Z,100526.09
2017-11-22T03:34:41.611Z,100526.45
2017-11-22T03:36:43.220Z,100529.48
2017-11-22T03:38:45.199Z,100529.10
2017-11-22T03:40:47.077Z,100541.94
2017-11-22T03:42:49.056Z,100538.07
2017-11-22T03:44:51.105Z,100535.04
2017-11-22T03:46:53.097Z,100545.78
2017-11-22T03:48:59.213Z,100538.91
2017-11-22T03:51:13.101Z,100542.81
2017-11-22T03:53:21.193Z,100541.48
2017-11-22T03:55:23.251Z,100536.33
2017-11-22T03:57:25.205Z,100529.42
2017-11-22T03:59:27.253Z,100529.42
2017-11-22T04:01:29.265Z,100529.00
2017-11-22T04:03:31.250Z,100527.30
2017-11-22T04:05:33.235Z,100532.01
2017-11-22T04:07:35.388Z,100543.14
2017-11-22T04:09:37.238Z,100525.55
2017-11-22T04:11:39.126Z,100521.26
2017-11-22T04:13:41.097Z,100537.52
2017-11-22T04:15:43.025Z,100538.36
2017-11-22T04:17:44.979Z,100540.52
2017-11-22T04:19:50.711Z,100535.81
2017-11-22T04:21:52.231Z,100525.39
2017-11-22T04:23:54.230Z,100527.20
2017-11-22T04:25:56.099Z,100516.00
2017-11-22T04:27:58.071Z,100518.16
2017-11-22T04:30:00.029Z,100528.45
2017-11-22T04:32:02.039Z,100525.91
2017-11-22T04:34:03.981Z,100521.59
2017-11-22T04:36:05.770Z,100529.81
2017-11-22T04:38:07.267Z,100524.27
2017-11-22T04:40:09.253Z,100512.64
2017-11-22T04:42:11.286Z,100516.91
2017-11-22T04:44:13.249Z,100523.75
2017-11-22T04:46:15.220Z,100518.61
2017-11-22T04:48:17.322Z,100520.33
2017-11-22T04:50:19.230Z,100517.71
2017-11-22T04:52:21.219Z,100516.97
2017-11-22T04:54:23.257Z,100523.78
2017-11-22T04:56:25.288Z,100528.13
2017-11-22T04:58:27.290Z,100521.68
2017-11-22T05:00:29.255Z,100519.09
2017-11-22T05:02:31.264Z,100519.48
2017-11-22T05:04:33.241Z,100522.06
2017-11-22T05:06:38.289Z,100518.16
2017-11-22T05:08:40.432Z,100514.80
2017-11-22T05:10:42.286Z,100519.03
2017-11-22T05:12:44.264Z,100513.03
2017-11-22T05:14:46.308Z,100510.06
2017-11-22T05:16:48.379Z,100501.03
2017-11-22T05:18:50.360Z,100493.31
2017-11-22T05:20:52.388Z,100499.73
2017-11-22T05:22:54.381Z,100499.77
2017-11-22T05:24:56.290Z,100502.35
2017-11-22T05:26:58.410Z,100490.73
2017-11-22T05:29:00.402Z,100496.77
2017-11-22T05:31:02.287Z,100493.73
2017-11-22T05:33:04.271Z,100495.86
2017-11-22T05:35:06.409Z,100493.73
2017-11-22T05:37:08.285Z,100484.70
2017-11-22T05:39:10.437Z,100489.80
2017-11-22T05:41:12.438Z,100487.28
2017-11-22T05:43:14.266Z,100493.28
2017-11-22T05:47:35.966Z,100484.70
2017-11-22T05:49:39.837Z,100483.41
2017-11-22T05:51:42.056Z,100488.58
2017-11-22T05:53:44.815Z,100479.48
2017-11-22T05:55:47.803Z,100481.67
2017-11-22T05:57:49.980Z,100469.22
2017-11-22T05:59:52.551Z,100478.67
2017-11-22T06:01:54.909Z,100473.54
2017-11-22T06:03:56.989Z,100483.41
2017-11-22T06:05:59.975Z,100482.54
2017-11-22T06:08:02.864Z,100486.86
2017-11-22T06:10:05.450Z,100482.54
2017-11-22T06:12:07.891Z,100481.70
2017-11-22T06:14:10.489Z,100486.45
2017-11-22T06:16:12.826Z,100483.86
2017-11-22T06:18:15.556Z,100475.25
2017-11-22T06:20:17.993Z,100486.86
2017-11-22T06:22:20.473Z,100480.05
2017-11-22T06:24:23.726Z,100482.64
2017-11-22T06:26:26.031Z,100483.83
2017-11-22T06:28:28.887Z,100503.12
2017-11-22T06:30:31.610Z,100498.91
2017-11-22T06:32:33.973Z,100509.13
2017-11-22T06:34:40.056Z,100509.16
2017-11-22T06:36:42.992Z,100510.06
2017-11-22T06:38:45.872Z,100514.33
2017-11-22T06:43:09.275Z,100521.16
2017-11-22T06:45:11.939Z,100518.52
2017-11-22T06:47:15.026Z,100515.91
2017-11-22T06:49:17.895Z,100522.88
2017-11-22T06:51:20.629Z,100522.45
2017-11-22T06:53:23.584Z,100527.20
2017-11-22T06:55:26.036Z,100531.94
2017-11-22T06:57:29.974Z,100529.75
2017-11-22T06:59:32.779Z,100527.16
2017-11-22T07:01:35.257Z,100541.30
2017-11-22T07:03:43.487Z,100538.81
2017-11-22T07:05:46.733Z,100538.78
2017-11-22T07:07:49.482Z,100531.84
2017-11-22T07:09:52.060Z,100530.23
2017-11-22T07:13:47.261Z,100522.88
2017-11-22T07:15:54.736Z,100535.30
2017-11-22T07:17:57.976Z,100534.07
2017-11-22T07:20:01.588Z,100535.36
2017-11-22T07:22:05.990Z,100544.39
2017-11-22T07:24:08.528Z,100541.30
2017-11-22T07:26:11.031Z,100545.23
2017-11-22T07:28:14.430Z,100552.98
2017-11-22T07:30:17.701Z,100557.23
2017-11-22T07:32:20.458Z,100558.50
2017-11-22T07:34:23.607Z,100555.08
2017-11-22T07:36:32.491Z,100555.95
2017-11-22T07:38:35.066Z,100559.02
2017-11-22T07:40:37.725Z,100556.44
2017-11-22T07:42:42.709Z,100551.81
2017-11-22T07:44:44.758Z,100560.73
2017-11-22T07:46:46.725Z,100557.72
2017-11-22T07:48:48.594Z,100561.20
2017-11-22T07:50:50.292Z,100558.14
2017-11-22T07:52:52.439Z,100571.44
2017-11-22T07:54:54.361Z,100568.50
2017-11-22T07:56:56.284Z,100565.92
2017-11-22T07:59:01.530Z,100563.30
2017-11-22T08:01:03.683Z,100565.89
2017-11-22T08:03:09.025Z,100567.62
2017-11-22T08:05:11.281Z,100567.56
2017-11-22T08:07:13.355Z,100570.15
2017-11-22T08:09:15.291Z,100559.82
2017-11-22T08:11:17.299Z,100563.70
2017-11-22T08:13:19.317Z,100569.77
2017-11-22T08:15:21.485Z,100568.47
2017-11-22T08:17:23.281Z,100569.77
2017-11-22T08:19:25.297Z,100561.50
2017-11-22T08:21:27.302Z,100569.25
2017-11-22T08:23:29.287Z,100567.12
2017-11-22T08:25:31.568Z,100573.56
2017-11-22T08:27:33.495Z,100561.95
2017-11-22T08:29:35.385Z,100564.53
2017-11-22T08:31:37.422Z,100567.17
2017-11-22T08:33:39.639Z,100565.83
2017-11-22T08:35:41.642Z,100578.73
2017-11-22T08:37:43.315Z,100571.38
2017-11-22T08:39:45.477Z,100565.31
2017-11-22T08:41:53.498Z,100575.19
2017-11-22T08:43:56.698Z,100572.19
2017-11-22T08:45:58.776Z,100584.67
2017-11-22T08:48:00.721Z,100575.64
2017-11-22T08:50:02.713Z,100581.61
2017-11-22T08:52:04.804Z,100582.03
2017-11-22T08:54:13.110Z,100577.73
2017-11-22T08:56:21.539Z,100579.35
2017-11-22T08:58:26.468Z,100582.74
2017-11-22T09:00:28.297Z,100572.03
2017-11-22T09:02:30.282Z,100586.23
2017-11-22T09:05:58.939Z,100578.84
2017-11-22T09:08:01.844Z,100569.02
2017-11-22T09:10:04.835Z,100573.80
2017-11-22T09:12:07.792Z,100579.25
2017-11-22T09:14:10.686Z,100575.39
2017-11-22T09:16:12.937Z,100573.22
2017-11-22T09:18:21.623Z,100576.16
2017-11-22T09:20:24.568Z,100569.35
2017-11-22T09:22:58.885Z,100583.45
2017-11-22T09:25:07.927Z,100584.33
2017-11-22T09:27:10.901Z,100585.52
2017-11-22T09:29:13.867Z,100578.20
2017-11-22T09:31:22.630Z,100578.23
2017-11-22T09:33:26.140Z,100585.52
2017-11-22T09:35:30.919Z,100591.53
2017-11-22T09:37:33.737Z,100592.81
2017-11-22T09:39:36.506Z,100588.07
2017-11-22T09:41:39.300Z,100586.30
2017-11-22T09:43:42.065Z,100585.59
2017-11-22T09:45:45.056Z,100594.02
2017-11-22T09:47:48.800Z,100598.34
2017-11-22T09:49:51.295Z,100587.98
2017-11-22T09:51:53.743Z,100581.55
2017-11-22T09:53:55.750Z,100584.14
2017-11-22T09:55:57.729Z,100574.30
2017-11-22T09:58:01.132Z,100575.97
2017-11-22T10:00:03.435Z,100572.26
2017-11-22T10:02:05.319Z,100572.58
2017-11-22T10:04:07.410Z,100572.16
2017-11-22T10:06:09.567Z,100574.78
2017-11-22T10:08:11.447Z,100575.97
2017-11-22T10:10:13.427Z,100572.09
2017-11-22T10:12:15.525Z,100574.23
2017-11-22T10:14:17.379Z,100580.69
2017-11-22T10:16:19.492Z,100581.52
2017-11-22T10:18:27.332Z,100579.78
2017-11-22T10:20:29.743Z,100573.71
2017-11-22T10:22:37.686Z,100564.77
2017-11-22T10:24:45.088Z,100563.36
2017-11-22T10:26:53.469Z,100565.94
2017-11-22T10:28:55.302Z,100565.00
2017-11-22T10:30:57.664Z,100563.26
2017-11-22T10:33:05.328Z,100556.38
2017-11-22T10:35:07.319Z,100557.22
2017-11-22T10:37:09.502Z,100547.73
2017-11-22T10:39:11.980Z,100558.00
2017-11-22T10:41:14.340Z,100552.38
2017-11-22T10:43:16.435Z,100553.22
2017-11-22T10:45:19.865Z,100553.22
2017-11-22T10:47:23.054Z,100548.87
2017-11-22T10:49:25.390Z,100549.25
2017-11-22T10:51:27.487Z,100550.96
2017-11-22T10:53:34.829Z,100545.37
2017-11-22T10:55:36.743Z,100541.61
2017-11-22T10:57:38.738Z,100541.31
2017-11-22T10:59:40.856Z,100542.83
2017-11-22T11:01:42.819Z,100535.31
2017-11-22T11:03:44.970Z,100531.53
2017-11-22T11:05:46.744Z,100533.38
2017-11-22T11:07:48.743Z,100535.95
2017-11-22T11:09:50.759Z,100530.44
2017-11-22T11:11:52.718Z,100527.44
2017-11-22T11:13:54.770Z,100530.44
2017-11-22T11:15:56.806Z,100527.86
2017-11-22T11:17:58.816Z,100522.69
2017-11-22T11:20:00.742Z,100528.69
2017-11-22T11:22:02.879Z,100516.59
2017-11-22T11:24:04.835Z,100514.39
2017-11-22T11:26:07.558Z,100513.52
2017-11-22T11:28:09.455Z,100504.48
2017-11-22T11:30:11.537Z,100509.55
2017-11-22T11:32:13.297Z,100499.16
2017-11-22T11:34:15.892Z,100507.28
2017-11-22T11:36:24.256Z,100498.25
2017-11-22T11:38:27.465Z,100503.84
2017-11-22T11:40:29.370Z,100496.44
2017-11-22T11:42:31.531Z,100486.11
2017-11-22T11:44:33.336Z,100487.81
2017-11-22T11:46:35.699Z,100494.63
2017-11-22T11:48:37.486Z,100484.30
2017-11-22T11:50:39.850Z,100474.35
2017-11-22T11:52:41.763Z,100482.03
2017-11-22T11:54:46.853Z,100480.30
2017-11-22T11:56:48.726Z,100477.26
2017-11-22T11:58:50.737Z,100477.61
2017-11-22T12:00:52.701Z,100457.82
2017-11-22T12:02:54.737Z,100465.53
2017-11-22T12:04:56.722Z,100462.08
2017-11-22T12:06:58.633Z,100461.63
2017-11-22T12:09:00.282Z,100458.98
2017-11-22T12:11:02.312Z,100459.82
2017-11-22T12:13:04.470Z,100462.75
2017-11-22T12:15:06.322Z,100463.17
2017-11-22T12:17:08.347Z,100463.59
2017-11-22T12:19:10.473Z,100464.44
2017-11-22T12:21:13.822Z,100464.78
2017-11-22T12:25:13.721Z,100460.49
2017-11-22T12:35:49.772Z,100445.28
2017-11-22T12:37:52.956Z,100441.92
2017-11-22T12:39:55.717Z,100442.31
2017-11-22T12:41:58.658Z,100437.56
2017-11-22T12:52:10.343Z,100428.48
2017-11-22T13:02:25.458Z,100429.55
2017-11-22T13:04:27.943Z,100431.25
2017-11-22T13:06:30.723Z,100428.70
2017-11-22T13:08:33.628Z,100420.92
2017-11-22T13:10:42.764Z,100417.95
2017-11-22T13:12:44.992Z,100414.92
2017-11-22T13:14:51.495Z,100412.27
2017-11-22T13:16:54.444Z,100404.06
2017-11-22T13:18:56.912Z,100406.13
2017-11-22T13:20:59.702Z,100398.86
2017-11-22T13:23:01.946Z,100406.64
2017-11-22T13:25:04.892Z,100403.61
2017-11-22T13:27:08.838Z,100397.98
2017-11-22T13:37:30.941Z,100401.80
2017-11-22T13:39:33.839Z,100392.75
2017-11-22T13:41:37.055Z,100389.72
2017-11-22T13:43:39.325Z,100397.02
2017-11-22T13:45:41.483Z,100392.30
2017-11-22T13:47:43.320Z,100396.17
2017-11-22T13:49:45.863Z,100397.05
2017-11-22T13:51:48.305Z,100390.06
2017-11-22T13:53:50.287Z,100384.91
2017-11-22T13:55:52.330Z,100382.70
2017-11-22T13:57:54.354Z,100378.41
2017-11-22T13:59:56.337Z,100372.82
2017-11-22T14:01:58.455Z,100375.83
2017-11-22T14:04:00.326Z,100369.78
2017-11-22T14:06:02.289Z,100368.01
2017-11-22T14:08:04.675Z,100366.68
2017-11-22T14:10:06.704Z,100361.09
2017-11-22T14:12:08.683Z,100363.26
2017-11-22T14:14:10.494Z,100358.52
2017-11-22T14:16:12.432Z,100355.47
2017-11-22T14:18:14.515Z,100353.77
2017-11-22T14:20:16.462Z,100350.34
2017-11-22T14:22:18.448Z,100348.17
2017-11-22T14:24:20.282Z,100339.55
2017-11-22T14:26:22.680Z,100338.78
2017-11-22T14:28:24.704Z,100329.19
2017-11-22T14:30:26.720Z,100329.64
2017-11-22T14:32:29.277Z,100325.77
2017-11-22T14:34:31.298Z,100324.37
2017-11-22T14:36:33.357Z,100319.20
2017-11-22T14:38:35.294Z,100320.84
2017-11-22T14:40:37.299Z,100322.55
2017-11-22T14:42:39.341Z,100318.68
2017-11-22T14:47:11.000Z,100314.48
2017-11-22T14:49:13.578Z,100313.20
2017-11-22T14:51:15.818Z,100307.23
2017-11-22T14:53:18.405Z,100319.30
2017-11-22T14:55:20.560Z,100324.05
2017-11-22T14:57:22.920Z,100318.05
2017-11-22T14:59:25.705Z,100320.28
2017-11-22T15:01:27.711Z,100312.98
2017-11-22T15:03:30.435Z,100318.22
2017-11-22T15:05:33.541Z,100319.45
2017-11-22T15:07:35.993Z,100324.68
2017-11-22T15:09:38.571Z,100317.00
2017-11-22T15:11:40.948Z,100312.32
2017-11-22T15:13:43.737Z,100316.13
2017-11-22T15:15:46.949Z,100311.45
2017-11-22T15:17:49.722Z,100307.61
2017-11-22T15:19:51.813Z,100314.48
2017-11-22T15:21:53.874Z,100317.42
2017-11-22T15:23:56.500Z,100313.12
2017-11-22T15:33:47.231Z,100307.64
2017-11-22T15:35:52.660Z,100309.00
2017-11-22T15:37:54.940Z,100309.88
2017-11-22T15:39:57.844Z,100302.13
2017-11-22T15:42:00.720Z,100289.25
2017-11-22T15:44:04.110Z,100290.16
2017-11-22T15:46:06.579Z,100282.44
2017-11-22T15:48:18.811Z,100281.56
2017-11-22T15:50:21.888Z,100286.84
2017-11-22T15:52:24.438Z,100288.93
2017-11-22T15:54:26.794Z,100292.88
2017-11-22T15:56:29.758Z,100286.00
2017-11-22T15:58:33.610Z,100295.04
2017-11-22T16:00:37.000Z,100282.16
2017-11-22T16:02:39.370Z,100282.23
2017-11-22T16:04:42.112Z,100277.91
2017-11-22T16:06:45.590Z,100278.39
2017-11-22T16:08:47.710Z,100275.00
2017-11-22T16:10:52.198Z,100278.04
2017-11-22T16:12:54.626Z,100279.44
2017-11-22T16:14:57.849Z,100269.14
2017-11-22T16:17:00.274Z,100268.69
2017-11-22T16:19:02.818Z,100270.39
2017-11-22T16:21:04.907Z,100268.79
2017-11-22T16:23:07.857Z,100274.37
2017-11-22T16:25:13.322Z,100261.95
2017-11-22T16:27:16.847Z,100258.49
2017-11-22T16:29:19.518Z,100259.79
2017-11-22T16:31:22.611Z,100252.11
2017-11-22T16:34:46.942Z,100256.44
2017-11-22T16:36:50.053Z,100255.18
2017-11-22T16:38:56.832Z,100246.14
2017-11-22T16:41:00.288Z,100244.53
2017-11-22T16:43:02.841Z,100240.24
2017-11-22T16:45:05.788Z,100249.59
2017-11-22T16:47:08.895Z,100244.53
2017-11-22T16:49:11.477Z,100246.70
2017-11-22T16:51:13.769Z,100233.44
2017-11-22T16:53:16.001Z,100233.44
2017-11-22T16:55:18.617Z,100235.25
2017-11-22T16:57:20.743Z,100239.58
2017-11-22T16:59:23.714Z,100228.48
2017-11-22T17:01:26.740Z,100238.39
2017-11-22T17:03:28.900Z,100236.23
2017-11-22T17:05:32.064Z,100235.81
2017-11-22T17:07:34.847Z,100230.64
2017-11-22T17:09:37.030Z,100219.55
2017-11-22T17:11:39.905Z,100228.59
2017-11-22T17:13:42.394Z,100222.20
2017-11-22T17:15:47.125Z,100213.69
2017-11-22T17:17:49.574Z,100216.34
2017-11-22T17:19:51.962Z,100215.54
2017-11-22T17:21:54.443Z,100212.61
2017-11-22T17:24:14.306Z,100213.63
2017-11-22T17:26:16.618Z,100212.81
2017-11-22T17:28:19.395Z,100208.56
2017-11-22T17:30:21.739Z,100199.10
2017-11-22T17:32:23.915Z,100195.44
2017-11-22T17:34:26.600Z,100200.64
2017-11-22T17:36:29.382Z,100200.30
2017-11-22T17:38:31.752Z,100197.67
2017-11-22T17:40:34.700Z,100200.70
2017-11-22T17:42:36.887Z,100191.36
2017-11-22T17:44:39.439Z,100194.46
2017-11-22T17:46:42.038Z,100196.98
2017-11-22T17:48:44.979Z,100202.66
2017-11-22T17:50:47.610Z,100189.89
2017-11-22T17:52:51.121Z,100197.64
2017-11-22T17:54:57.562Z,100199.38
2017-11-22T17:56:59.941Z,100199.87
2017-11-22T17:59:02.939Z,100195.52
2017-11-22T18:01:05.710Z,100206.33
2017-11-22T18:03:07.869Z,100200.29
2017-11-22T18:05:10.542Z,100196.80
2017-11-22T18:07:13.102Z,100204.09
2017-11-22T18:09:16.569Z,100199.87
2017-11-22T18:13:14.818Z,100192.72
2017-11-22T18:15:17.611Z,100191.18
2017-11-22T18:17:19.862Z,100195.55
2017-11-22T18:19:22.984Z,100190.87
2017-11-22T18:21:25.759Z,100181.94
2017-11-22T18:23:28.923Z,100186.20
2017-11-22T18:25:31.798Z,100189.27
2017-11-22T18:27:33.856Z,100184.27
2017-11-22T18:29:36.458Z,100175.10
2017-11-22T18:31:38.915Z,100180.27
2017-11-22T18:33:41.399Z,100177.75
2017-11-22T18:35:43.923Z,100179.50
2017-11-22T18:37:46.564Z,100166.37
2017-11-22T18:39:48.961Z,100176.19
2017-11-22T18:41:51.797Z,100162.27
2017-11-22T18:43:54.470Z,100172.13
2017-11-22T18:45:56.452Z,100156.33
2017-11-22T18:47:58.688Z,100162.27
2017-11-22T18:50:00.857Z,100155.81
2017-11-22T18:52:02.911Z,100153.57
2017-11-22T18:54:05.294Z,100148.53
2017-11-22T18:56:07.586Z,100147.34
2017-11-22T18:58:09.943Z,100150.34
2017-11-22T19:00:12.799Z,100148.50
2017-11-22T19:02:14.968Z,100153.17
2017-11-22T19:04:17.449Z,100145.83
2017-11-22T19:06:20.033Z,100150.91
2017-11-22T19:08:22.910Z,100149.37
2017-11-22T19:10:25.386Z,100152.77
2017-11-22T19:12:27.838Z,100149.41
2017-11-22T19:14:30.467Z,100142.41
2017-11-22T19:16:32.889Z,100139.36
2017-11-22T19:18:35.786Z,100139.13
2017-11-22T19:20:38.370Z,100133.72
2017-11-22T19:22:40.766Z,100128.90
2017-11-22T19:24:43.004Z,100120.12
2017-11-22T19:26:45.380Z,100130.87
2017-11-22T19:28:47.915Z,100127.80
2017-11-22T19:30:50.009Z,100129.17
2017-11-22T19:32:52.427Z,100123.57
2017-11-22T19:34:54.762Z,100122.69
2017-11-22T19:36:56.923Z,100128.22
2017-11-22T19:38:59.896Z,100125.50
2017-11-22T19:41:01.944Z,100120.40
2017-11-22T19:43:04.302Z,100123.33
2017-11-22T19:45:07.441Z,100122.03
2017-11-22T19:47:09.611Z,100121.16
2017-11-22T19:49:11.857Z,100114.27
2017-11-22T19:51:14.055Z,100120.73
2017-11-22T19:53:16.788Z,100113.55
2017-11-22T19:55:18.756Z,100115.39
2017-11-22T19:57:20.856Z,100115.02
2017-11-22T19:59:23.283Z,100114.38
2017-11-22T20:01:25.477Z,100107.12
2017-11-22T20:03:27.404Z,100107.55
2017-11-22T20:05:29.604Z,100105.66
2017-11-22T20:07:37.888Z,100100.06
2017-11-22T20:09:39.818Z,100098.59
2017-11-22T20:11:41.946Z,100093.59
2017-11-22T20:13:44.707Z,100094.20
2017-11-22T20:15:46.977Z,100092.61
2017-11-22T20:17:49.850Z,100097.25
2017-11-22T20:19:51.991Z,100084.92
2017-11-22T20:21:54.249Z,100096.19
2017-11-22T20:23:56.544Z,100100.88
2017-11-22T20:25:58.902Z,100097.83
2017-11-22T20:28:01.396Z,100098.78
2017-11-22T20:30:03.846Z,100090.34
2017-11-22T20:32:06.019Z,100095.69
2017-11-22T20:34:08.258Z,100094.92
2017-11-22T20:36:10.320Z,100089.91
2017-11-22T20:38:12.532Z,100080.80
2017-11-22T20:40:14.601Z,100096.64
2017-11-22T20:42:16.758Z,100089.82
2017-11-22T20:44:19.003Z,100092.92
2017-11-22T20:46:21.810Z,100092.50
2017-11-22T20:48:23.845Z,100090.98
2017-11-22T20:50:25.761Z,100082.16
2017-11-22T20:52:28.425Z,100095.20
2017-11-22T20:54:30.557Z,100085.79
2017-11-22T20:56:32.759Z,100077.02
2017-11-22T20:58:34.700Z,100086.66
2017-11-22T21:00:36.843Z,100090.49
2017-11-22T21:02:38.910Z,100082.77
2017-11-22T21:04:41.392Z,100082.72
2017-11-22T21:06:43.274Z,100077.30
2017-11-22T21:08:45.759Z,100078.66
2017-11-22T21:10:47.895Z,100071.02
2017-11-22T21:12:50.054Z,100072.35
2017-11-22T21:14:52.429Z,100073.11
2017-11-22T21:16:54.776Z,100070.64
2017-11-22T21:18:57.399Z,100072.93
2017-11-22T21:20:59.720Z,100072.47
2017-11-22T21:23:02.102Z,100066.81
2017-11-22T21:25:04.578Z,100066.44
2017-11-22T21:27:06.755Z,100065.14
2017-11-22T21:29:08.904Z,100066.02
2017-11-22T21:31:10.999Z,100066.14
2017-11-22T21:33:13.535Z,100061.32
2017-11-22T21:35:15.728Z,100064.78
2017-11-22T21:37:17.870Z,100061.78
2017-11-22T21:39:19.930Z,100056.27
2017-11-22T21:41:22.066Z,100051.42
2017-11-22T21:43:24.574Z,100062.31
2017-11-22T21:45:26.729Z,100051.70
2017-11-22T21:47:28.867Z,100052.70
2017-11-22T21:49:30.960Z,100052.58
2017-11-22T21:51:33.510Z,100043.64
2017-11-22T21:53:36.068Z,100038.28
2017-11-22T21:55:38.837Z,100039.70
2017-11-22T21:57:41.033Z,100035.67
2017-11-22T21:59:43.549Z,100032.52
2017-11-22T22:01:46.105Z,100043.98
2017-11-22T22:03:48.773Z,100029.78
2017-11-22T22:05:50.740Z,100035.95
2017-11-22T22:07:52.906Z,100030.31
2017-11-22T22:09:54.871Z,100038.96
2017-11-22T22:11:57.463Z,100026.59
2017-11-22T22:13:59.708Z,100024.01
2017-11-22T22:16:01.869Z,100021.04
2017-11-22T22:18:03.927Z,100022.49
2017-11-22T22:20:06.134Z,100011.61
2017-11-22T22:23:59.762Z,100018.02
2017-11-22T22:26:01.845Z,100012.84
2017-11-22T22:28:03.919Z,100006.91
2017-11-22T22:30:13.975Z,100007.83
2017-11-22T22:32:16.216Z,100009.19
2017-11-22T22:34:18.702Z,100001.06
2017-11-22T22:36:21.102Z,100003.58
2017-11-22T22:38:23.377Z,99997.65
2017-11-22T22:40:25.944Z,99994.45
2017-11-22T22:42:28.706Z,99992.05
2017-11-22T22:44:30.776Z,99991.34
2017-11-22T22:46:32.750Z,99996.55
2017-11-22T22:48:34.860Z,99994.50
2017-11-22T22:50:36.957Z,99993.75
2017-11-22T22:52:39.129Z,99989.56
2017-11-22T22:54:41.805Z,99988.97
2017-11-22T22:56:43.852Z,99995.06
2017-11-22T22:58:46.349Z,99993.37
2017-11-22T23:09:06.686Z,99989.09
2017-11-22T23:11:08.574Z,100000.64
2017-11-22T23:13:10.742Z,100001.64
2017-11-22T23:15:12.803Z,99998.25
2017-11-22T23:17:14.557Z,99998.18
2017-11-22T23:19:16.713Z,99989.78
2017-11-22T23:21:18.984Z,99987.77
2017-11-22T23:23:20.912Z,99979.59
2017-11-22T23:25:23.030Z,99985.75
2017-11-22T23:27:26.073Z,99980.13
2017-11-22T23:35:38.795Z,99977.75
2017-11-22T23:37:40.897Z,99988.85
2017-11-22T23:39:43.051Z,99989.69
2017-11-22T23:41:45.952Z,99987.14
2017-11-22T23:43:48.301Z,99988.97
2017-11-22T23:45:50.613Z,99987.79
2017-11-22T23:47:55.262Z,99979.50
2017-11-22T23:49:57.667Z,99976.91
2017-11-22T23:51:59.949Z,99975.31
2017-11-22T23:54:02.300Z,99965.13
2017-11-22T23:56:04.158Z,99969.13
2017-11-22T23:58:06.565Z,99963.61
